sensor_id;sensor_type;location;lat;lon;timestamp;P1;durP1;ratioP1;P2;durP2;ratioP2
2480;SDS011;57396;48.742;9.128;2023-06-14T00:02:10;7.37;;;4.80;;
2480;SDS011;57396;48.742;9.128;2023-06-14T00:04:36;6.40;;;4.93;;
2480;SDS011;57396;48.742;9.128;2023-06-14T00:07:03;7.10;;;5.70;;
2480;SDS011;57396;48.742;9.128;2023-06-14T00:09:28;6.80;;;5.33;;
2480;SDS011;57396;48.742;9.128;2023-06-14T00:11:54;5.77;;;5.03;;
2480;SDS011;57396;48.742;9.128;2023-06-14T00:14:19;4.90;;;4.40;;
2480;SDS011;57396;48.742;9.128;2023-06-14T00:16:45;5.40;;;4.87;;
2480;SDS011;57396;48.742;9.128;2023-06-14T00:19:10;5.43;;;4.93;;
2480;SDS011;57396;48.742;9.128;2023-06-14T00:21:36;6.83;;;4.90;;
2480;SDS011;57396;48.742;9.128;2023-06-14T00:24:03;5.20;;;4.70;;
2480;SDS011;57396;48.742;9.128;2023-06-14T00:26:29;6.67;;;4.83;;
2480;SDS011;57396;48.742;9.128;2023-06-14T00:28:54;6.97;;;4.50;;
2480;SDS011;57396;48.742;9.128;2023-06-14T00:31:21;7.77;;;4.90;;
2480;SDS011;57396;48.742;9.128;2023-06-14T00:33:46;7.23;;;5.30;;
2480;SDS011;57396;48.742;9.128;2023-06-14T00:36:12;6.50;;;4.90;;
2480;SDS011;57396;48.742;9.128;2023-06-14T00:38:38;9.77;;;4.90;;
2480;SDS011;57396;48.742;9.128;2023-06-14T00:41:03;4.93;;;4.30;;
2480;SDS011;57396;48.742;9.128;2023-06-14T00:43:29;5.00;;;4.47;;
2480;SDS011;57396;48.742;9.128;2023-06-14T00:45:54;6.80;;;4.90;;
2480;SDS011;57396;48.742;9.128;2023-06-14T00:48:20;8.30;;;5.10;;
2480;SDS011;57396;48.742;9.128;2023-06-14T00:50:45;7.07;;;5.00;;
2480;SDS011;57396;48.742;9.128;2023-06-14T00:53:11;5.17;;;4.70;;
2480;SDS011;57396;48.742;9.128;2023-06-14T00:55:37;6.90;;;4.93;;
2480;SDS011;57396;48.742;9.128;2023-06-14T00:58:03;6.40;;;5.00;;
2480;SDS011;57396;48.742;9.128;2023-06-14T01:00:28;5.13;;;4.47;;
2480;SDS011;57396;48.742;9.128;2023-06-14T01:02:54;5.20;;;4.67;;
2480;SDS011;57396;48.742;9.128;2023-06-14T01:05:20;8.07;;;5.00;;
2480;SDS011;57396;48.742;9.128;2023-06-14T01:08:07;6.43;;;5.00;;
2480;SDS011;57396;48.742;9.128;2023-06-14T01:13:32;11.80;;;4.90;;
2480;SDS011;57396;48.742;9.128;2023-06-14T01:15:59;5.47;;;4.97;;
2480;SDS011;57396;48.742;9.128;2023-06-14T01:18:25;6.10;;;5.10;;
2480;SDS011;57396;48.742;9.128;2023-06-14T01:20:53;8.80;;;5.30;;
2480;SDS011;57396;48.742;9.128;2023-06-14T01:23:20;5.50;;;4.90;;
2480;SDS011;57396;48.742;9.128;2023-06-14T01:25:46;6.07;;;4.90;;
2480;SDS011;57396;48.742;9.128;2023-06-14T01:28:13;10.83;;;5.17;;
2480;SDS011;57396;48.742;9.128;2023-06-14T01:30:42;7.07;;;5.40;;
2480;SDS011;57396;48.742;9.128;2023-06-14T01:33:16;5.53;;;4.70;;
2480;SDS011;57396;48.742;9.128;2023-06-14T01:35:45;8.70;;;4.87;;
2480;SDS011;57396;48.742;9.128;2023-06-14T01:38:12;5.13;;;4.53;;
2480;SDS011;57396;48.742;9.128;2023-06-14T01:40:38;7.40;;;5.30;;
2480;SDS011;57396;48.742;9.128;2023-06-14T01:43:04;6.17;;;4.93;;
2480;SDS011;57396;48.742;9.128;2023-06-14T01:45:30;6.27;;;4.80;;
2480;SDS011;57396;48.742;9.128;2023-06-14T01:47:56;5.17;;;4.67;;
2480;SDS011;57396;48.742;9.128;2023-06-14T01:50:22;5.37;;;4.87;;
2480;SDS011;57396;48.742;9.128;2023-06-14T01:52:48;5.10;;;4.60;;
2480;SDS011;57396;48.742;9.128;2023-06-14T01:55:13;5.80;;;4.57;;
2480;SDS011;57396;48.742;9.128;2023-06-14T01:57:38;9.10;;;5.10;;
2480;SDS011;57396;48.742;9.128;2023-06-14T02:00:04;6.37;;;4.93;;
2480;SDS011;57396;48.742;9.128;2023-06-14T02:02:33;5.80;;;4.90;;
2480;SDS011;57396;48.742;9.128;2023-06-14T02:04:58;6.93;;;5.03;;
2480;SDS011;57396;48.742;9.128;2023-06-14T02:07:24;4.87;;;4.37;;
2480;SDS011;57396;48.742;9.128;2023-06-14T02:09:49;6.80;;;5.30;;
2480;SDS011;57396;48.742;9.128;2023-06-14T02:12:15;6.40;;;5.07;;
2480;SDS011;57396;48.742;9.128;2023-06-14T02:14:40;8.03;;;5.07;;
2480;SDS011;57396;48.742;9.128;2023-06-14T02:17:06;7.03;;;4.80;;
2480;SDS011;57396;48.742;9.128;2023-06-14T02:19:31;7.37;;;5.00;;
2480;SDS011;57396;48.742;9.128;2023-06-14T02:21:57;6.40;;;4.80;;
2480;SDS011;57396;48.742;9.128;2023-06-14T02:24:22;7.60;;;5.30;;
2480;SDS011;57396;48.742;9.128;2023-06-14T02:26:49;7.00;;;5.10;;
2480;SDS011;57396;48.742;9.128;2023-06-14T02:29:14;6.70;;;5.33;;
2480;SDS011;57396;48.742;9.128;2023-06-14T02:31:41;9.73;;;5.70;;
2480;SDS011;57396;48.742;9.128;2023-06-14T02:34:06;5.03;;;4.53;;
2480;SDS011;57396;48.742;9.128;2023-06-14T02:36:34;5.80;;;5.17;;
2480;SDS011;57396;48.742;9.128;2023-06-14T02:39:00;5.33;;;4.77;;
2480;SDS011;57396;48.742;9.128;2023-06-14T02:41:25;7.40;;;5.63;;
2480;SDS011;57396;48.742;9.128;2023-06-14T02:43:52;6.60;;;5.03;;
2480;SDS011;57396;48.742;9.128;2023-06-14T02:46:17;6.17;;;5.37;;
2480;SDS011;57396;48.742;9.128;2023-06-14T02:48:43;5.10;;;4.60;;
2480;SDS011;57396;48.742;9.128;2023-06-14T02:51:08;9.10;;;5.93;;
2480;SDS011;57396;48.742;9.128;2023-06-14T02:53:34;6.70;;;4.63;;
2480;SDS011;57396;48.742;9.128;2023-06-14T02:56:01;7.37;;;4.93;;
2480;SDS011;57396;48.742;9.128;2023-06-14T02:58:26;6.23;;;4.97;;
2480;SDS011;57396;48.742;9.128;2023-06-14T03:00:52;9.47;;;5.20;;
2480;SDS011;57396;48.742;9.128;2023-06-14T03:03:20;7.07;;;5.20;;
2480;SDS011;57396;48.742;9.128;2023-06-14T03:05:47;6.70;;;4.70;;
2480;SDS011;57396;48.742;9.128;2023-06-14T03:08:14;5.70;;;5.20;;
2480;SDS011;57396;48.742;9.128;2023-06-14T03:10:48;9.00;;;5.57;;
2480;SDS011;57396;48.742;9.128;2023-06-14T03:13:17;6.67;;;5.23;;
2480;SDS011;57396;48.742;9.128;2023-06-14T03:15:45;10.73;;;5.47;;
2480;SDS011;57396;48.742;9.128;2023-06-14T03:18:11;6.87;;;4.60;;
2480;SDS011;57396;48.742;9.128;2023-06-14T03:20:40;6.90;;;5.40;;
2480;SDS011;57396;48.742;9.128;2023-06-14T03:23:06;7.40;;;5.03;;
2480;SDS011;57396;48.742;9.128;2023-06-14T03:25:31;7.10;;;5.13;;
2480;SDS011;57396;48.742;9.128;2023-06-14T03:28:01;5.97;;;4.83;;
2480;SDS011;57396;48.742;9.128;2023-06-14T03:30:27;12.93;;;4.60;;
2480;SDS011;57396;48.742;9.128;2023-06-14T03:32:55;6.50;;;5.10;;
2480;SDS011;57396;48.742;9.128;2023-06-14T03:35:21;5.50;;;4.70;;
2480;SDS011;57396;48.742;9.128;2023-06-14T03:37:46;7.33;;;5.10;;
2480;SDS011;57396;48.742;9.128;2023-06-14T03:40:12;6.63;;;4.80;;
2480;SDS011;57396;48.742;9.128;2023-06-14T03:42:41;8.10;;;5.43;;
2480;SDS011;57396;48.742;9.128;2023-06-14T03:45:06;11.10;;;4.93;;
2480;SDS011;57396;48.742;9.128;2023-06-14T03:47:32;5.73;;;4.90;;
2480;SDS011;57396;48.742;9.128;2023-06-14T03:49:58;5.47;;;4.97;;
2480;SDS011;57396;48.742;9.128;2023-06-14T03:52:24;10.63;;;5.83;;
2480;SDS011;57396;48.742;9.128;2023-06-14T03:54:50;5.57;;;5.03;;
2480;SDS011;57396;48.742;9.128;2023-06-14T03:57:16;7.73;;;5.53;;
2480;SDS011;57396;48.742;9.128;2023-06-14T03:59:42;8.03;;;5.27;;
2480;SDS011;57396;48.742;9.128;2023-06-14T04:02:07;6.40;;;4.80;;
2480;SDS011;57396;48.742;9.128;2023-06-14T04:04:34;6.53;;;5.70;;
2480;SDS011;57396;48.742;9.128;2023-06-14T04:07:00;9.10;;;4.17;;
2480;SDS011;57396;48.742;9.128;2023-06-14T04:09:28;6.60;;;5.40;;
2480;SDS011;57396;48.742;9.128;2023-06-14T04:11:57;7.87;;;5.40;;
2480;SDS011;57396;48.742;9.128;2023-06-14T04:14:23;7.37;;;5.00;;
2480;SDS011;57396;48.742;9.128;2023-06-14T04:16:48;6.60;;;5.27;;
2480;SDS011;57396;48.742;9.128;2023-06-14T04:19:14;9.13;;;5.17;;
2480;SDS011;57396;48.742;9.128;2023-06-14T04:21:40;7.13;;;5.13;;
2480;SDS011;57396;48.742;9.128;2023-06-14T04:24:06;5.87;;;5.27;;
2480;SDS011;57396;48.742;9.128;2023-06-14T04:26:32;7.27;;;5.10;;
2480;SDS011;57396;48.742;9.128;2023-06-14T04:28:58;5.27;;;4.83;;
2480;SDS011;57396;48.742;9.128;2023-06-14T04:31:30;8.67;;;4.83;;
2480;SDS011;57396;48.742;9.128;2023-06-14T04:33:59;11.40;;;5.23;;
2480;SDS011;57396;48.742;9.128;2023-06-14T04:36:24;6.83;;;5.73;;
2480;SDS011;57396;48.742;9.128;2023-06-14T04:38:53;8.27;;;5.70;;
2480;SDS011;57396;48.742;9.128;2023-06-14T04:41:22;9.50;;;5.77;;
2480;SDS011;57396;48.742;9.128;2023-06-14T04:43:48;10.73;;;5.60;;
2480;SDS011;57396;48.742;9.128;2023-06-14T04:46:14;10.70;;;6.03;;
2480;SDS011;57396;48.742;9.128;2023-06-14T04:48:40;6.03;;;5.27;;
2480;SDS011;57396;48.742;9.128;2023-06-14T04:51:10;7.70;;;5.83;;
2480;SDS011;57396;48.742;9.128;2023-06-14T04:53:36;6.13;;;5.00;;
2480;SDS011;57396;48.742;9.128;2023-06-14T04:56:02;7.87;;;5.60;;
2480;SDS011;57396;48.742;9.128;2023-06-14T04:58:29;11.93;;;5.90;;
2480;SDS011;57396;48.742;9.128;2023-06-14T05:00:54;8.43;;;5.60;;
2480;SDS011;57396;48.742;9.128;2023-06-14T05:03:21;7.70;;;6.00;;
2480;SDS011;57396;48.742;9.128;2023-06-14T05:05:49;7.20;;;5.50;;
2480;SDS011;57396;48.742;9.128;2023-06-14T05:08:15;9.40;;;5.43;;
2480;SDS011;57396;48.742;9.128;2023-06-14T05:10:41;6.67;;;5.00;;
2480;SDS011;57396;48.742;9.128;2023-06-14T05:13:06;6.00;;;4.97;;
2480;SDS011;57396;48.742;9.128;2023-06-14T05:15:32;10.17;;;5.50;;
2480;SDS011;57396;48.742;9.128;2023-06-14T05:17:57;7.90;;;5.30;;
2480;SDS011;57396;48.742;9.128;2023-06-14T05:20:23;6.00;;;5.20;;
2480;SDS011;57396;48.742;9.128;2023-06-14T05:22:55;6.80;;;5.63;;
2480;SDS011;57396;48.742;9.128;2023-06-14T05:25:21;7.43;;;5.33;;
2480;SDS011;57396;48.742;9.128;2023-06-14T05:27:47;6.30;;;5.30;;
2480;SDS011;57396;48.742;9.128;2023-06-14T05:30:13;7.83;;;5.33;;
2480;SDS011;57396;48.742;9.128;2023-06-14T05:32:40;6.00;;;4.80;;
2480;SDS011;57396;48.742;9.128;2023-06-14T05:35:05;6.00;;;5.40;;
2480;SDS011;57396;48.742;9.128;2023-06-14T05:37:31;5.43;;;4.50;;
2480;SDS011;57396;48.742;9.128;2023-06-14T05:39:57;7.33;;;4.93;;
2480;SDS011;57396;48.742;9.128;2023-06-14T05:42:22;11.30;;;4.70;;
2480;SDS011;57396;48.742;9.128;2023-06-14T05:44:47;8.57;;;5.80;;
2480;SDS011;57396;48.742;9.128;2023-06-14T05:47:13;10.40;;;5.37;;
2480;SDS011;57396;48.742;9.128;2023-06-14T05:49:38;13.20;;;6.67;;
2480;SDS011;57396;48.742;9.128;2023-06-14T05:52:04;6.70;;;5.30;;
2480;SDS011;57396;48.742;9.128;2023-06-14T05:54:30;10.00;;;5.43;;
2480;SDS011;57396;48.742;9.128;2023-06-14T05:56:55;7.17;;;5.47;;
2480;SDS011;57396;48.742;9.128;2023-06-14T05:59:21;10.73;;;6.00;;
2480;SDS011;57396;48.742;9.128;2023-06-14T06:01:46;10.30;;;5.37;;
2480;SDS011;57396;48.742;9.128;2023-06-14T06:04:12;8.40;;;5.10;;
2480;SDS011;57396;48.742;9.128;2023-06-14T06:06:37;6.33;;;5.70;;
2480;SDS011;57396;48.742;9.128;2023-06-14T06:09:03;5.60;;;5.10;;
2480;SDS011;57396;48.742;9.128;2023-06-14T06:11:28;8.27;;;5.20;;
2480;SDS011;57396;48.742;9.128;2023-06-14T06:13:54;6.77;;;4.90;;
2480;SDS011;57396;48.742;9.128;2023-06-14T06:16:19;9.40;;;5.57;;
2480;SDS011;57396;48.742;9.128;2023-06-14T06:18:45;6.63;;;5.50;;
2480;SDS011;57396;48.742;9.128;2023-06-14T06:21:10;8.93;;;5.57;;
2480;SDS011;57396;48.742;9.128;2023-06-14T06:23:36;17.43;;;5.83;;
2480;SDS011;57396;48.742;9.128;2023-06-14T06:26:01;6.83;;;4.77;;
2480;SDS011;57396;48.742;9.128;2023-06-14T06:28:27;5.80;;;5.20;;
2480;SDS011;57396;48.742;9.128;2023-06-14T06:30:52;6.20;;;5.60;;
2480;SDS011;57396;48.742;9.128;2023-06-14T06:33:18;8.07;;;5.10;;
2480;SDS011;57396;48.742;9.128;2023-06-14T06:35:44;12.17;;;5.40;;
2480;SDS011;57396;48.742;9.128;2023-06-14T06:38:09;6.93;;;5.30;;
2480;SDS011;57396;48.742;9.128;2023-06-14T06:40:35;7.03;;;5.30;;
2480;SDS011;57396;48.742;9.128;2023-06-14T06:43:01;9.67;;;5.50;;
2480;SDS011;57396;48.742;9.128;2023-06-14T06:45:27;7.50;;;4.90;;
2480;SDS011;57396;48.742;9.128;2023-06-14T06:47:53;5.30;;;4.80;;
2480;SDS011;57396;48.742;9.128;2023-06-14T06:50:18;7.87;;;5.13;;
2480;SDS011;57396;48.742;9.128;2023-06-14T06:52:44;6.80;;;5.57;;
2480;SDS011;57396;48.742;9.128;2023-06-14T06:55:10;6.97;;;5.10;;
2480;SDS011;57396;48.742;9.128;2023-06-14T06:57:36;6.40;;;5.20;;
2480;SDS011;57396;48.742;9.128;2023-06-14T07:00:02;10.03;;;5.03;;
2480;SDS011;57396;48.742;9.128;2023-06-14T07:02:30;8.00;;;5.10;;
2480;SDS011;57396;48.742;9.128;2023-06-14T07:04:56;5.50;;;4.83;;
2480;SDS011;57396;48.742;9.128;2023-06-14T07:07:21;4.93;;;4.40;;
2480;SDS011;57396;48.742;9.128;2023-06-14T07:09:47;7.07;;;4.97;;
2480;SDS011;57396;48.742;9.128;2023-06-14T07:12:12;7.40;;;5.00;;
2480;SDS011;57396;48.742;9.128;2023-06-14T07:14:38;6.27;;;4.60;;
2480;SDS011;57396;48.742;9.128;2023-06-14T07:17:03;19.37;;;5.60;;
2480;SDS011;57396;48.742;9.128;2023-06-14T07:19:29;5.93;;;5.10;;
2480;SDS011;57396;48.742;9.128;2023-06-14T07:21:55;8.80;;;5.10;;
2480;SDS011;57396;48.742;9.128;2023-06-14T07:24:21;5.23;;;4.70;;
2480;SDS011;57396;48.742;9.128;2023-06-14T07:26:46;9.90;;;5.40;;
2480;SDS011;57396;48.742;9.128;2023-06-14T07:29:13;13.13;;;5.80;;
2480;SDS011;57396;48.742;9.128;2023-06-14T07:31:39;7.80;;;5.03;;
2480;SDS011;57396;48.742;9.128;2023-06-14T07:34:04;7.87;;;5.33;;
2480;SDS011;57396;48.742;9.128;2023-06-14T07:36:30;6.87;;;4.93;;
2480;SDS011;57396;48.742;9.128;2023-06-14T07:38:55;7.50;;;4.83;;
2480;SDS011;57396;48.742;9.128;2023-06-14T07:41:21;7.27;;;4.30;;
2480;SDS011;57396;48.742;9.128;2023-06-14T07:43:47;7.47;;;4.70;;
2480;SDS011;57396;48.742;9.128;2023-06-14T07:46:12;11.77;;;5.07;;
2480;SDS011;57396;48.742;9.128;2023-06-14T07:48:37;7.53;;;4.63;;
2480;SDS011;57396;48.742;9.128;2023-06-14T07:51:03;4.67;;;4.27;;
2480;SDS011;57396;48.742;9.128;2023-06-14T07:53:29;10.27;;;4.63;;
2480;SDS011;57396;48.742;9.128;2023-06-14T07:55:56;5.17;;;4.50;;
2480;SDS011;57396;48.742;9.128;2023-06-14T07:58:21;7.67;;;4.53;;
2480;SDS011;57396;48.742;9.128;2023-06-14T08:00:47;13.10;;;5.20;;
2480;SDS011;57396;48.742;9.128;2023-06-14T08:03:12;6.13;;;4.50;;
2480;SDS011;57396;48.742;9.128;2023-06-14T08:05:37;6.27;;;4.50;;
2480;SDS011;57396;48.742;9.128;2023-06-14T08:08:03;8.87;;;3.90;;
2480;SDS011;57396;48.742;9.128;2023-06-14T08:10:29;6.40;;;4.90;;
2480;SDS011;57396;48.742;9.128;2023-06-14T08:12:54;5.27;;;4.27;;
2480;SDS011;57396;48.742;9.128;2023-06-14T08:15:19;9.63;;;4.87;;
2480;SDS011;57396;48.742;9.128;2023-06-14T08:17:45;9.00;;;4.07;;
2480;SDS011;57396;48.742;9.128;2023-06-14T08:20:11;6.10;;;5.30;;
2480;SDS011;57396;48.742;9.128;2023-06-14T08:22:37;5.90;;;4.30;;
2480;SDS011;57396;48.742;9.128;2023-06-14T08:25:03;8.90;;;4.70;;
2480;SDS011;57396;48.742;9.128;2023-06-14T08:27:29;7.33;;;5.27;;
2480;SDS011;57396;48.742;9.128;2023-06-14T08:29:54;9.07;;;4.67;;
2480;SDS011;57396;48.742;9.128;2023-06-14T08:32:21;9.03;;;5.30;;
2480;SDS011;57396;48.742;9.128;2023-06-14T08:34:46;5.30;;;4.80;;
2480;SDS011;57396;48.742;9.128;2023-06-14T08:37:12;7.93;;;6.60;;
2480;SDS011;57396;48.742;9.128;2023-06-14T08:39:37;9.03;;;4.47;;
2480;SDS011;57396;48.742;9.128;2023-06-14T08:42:03;7.17;;;4.90;;
2480;SDS011;57396;48.742;9.128;2023-06-14T08:44:29;6.40;;;4.60;;
2480;SDS011;57396;48.742;9.128;2023-06-14T08:46:55;8.77;;;5.20;;
2480;SDS011;57396;48.742;9.128;2023-06-14T08:49:22;10.63;;;5.20;;
2480;SDS011;57396;48.742;9.128;2023-06-14T08:51:48;6.50;;;4.87;;
2480;SDS011;57396;48.742;9.128;2023-06-14T08:54:17;5.73;;;4.60;;
2480;SDS011;57396;48.742;9.128;2023-06-14T08:56:45;9.60;;;4.83;;
2480;SDS011;57396;48.742;9.128;2023-06-14T08:59:13;15.20;;;5.60;;
2480;SDS011;57396;48.742;9.128;2023-06-14T09:01:38;6.90;;;5.33;;
2480;SDS011;57396;48.742;9.128;2023-06-14T09:04:04;10.80;;;4.77;;
2480;SDS011;57396;48.742;9.128;2023-06-14T09:06:30;6.43;;;3.93;;
2480;SDS011;57396;48.742;9.128;2023-06-14T09:08:56;9.20;;;4.77;;
2480;SDS011;57396;48.742;9.128;2023-06-14T09:11:22;6.73;;;4.37;;
2480;SDS011;57396;48.742;9.128;2023-06-14T09:13:48;6.47;;;5.50;;
2480;SDS011;57396;48.742;9.128;2023-06-14T09:16:14;7.53;;;4.90;;
2480;SDS011;57396;48.742;9.128;2023-06-14T09:21:06;5.30;;;4.43;;
2480;SDS011;57396;48.742;9.128;2023-06-14T09:23:37;6.97;;;4.80;;
2480;SDS011;57396;48.742;9.128;2023-06-14T09:26:09;10.70;;;6.60;;
2480;SDS011;57396;48.742;9.128;2023-06-14T09:28:36;6.93;;;4.57;;
2480;SDS011;57396;48.742;9.128;2023-06-14T09:31:19;5.20;;;4.33;;
2480;SDS011;57396;48.742;9.128;2023-06-14T09:33:47;9.97;;;4.70;;
2480;SDS011;57396;48.742;9.128;2023-06-14T09:36:23;4.90;;;4.40;;
2480;SDS011;57396;48.742;9.128;2023-06-14T09:38:59;9.33;;;4.70;;
2480;SDS011;57396;48.742;9.128;2023-06-14T09:41:32;12.77;;;4.47;;
2480;SDS011;57396;48.742;9.128;2023-06-14T09:44:05;8.63;;;5.03;;
2480;SDS011;57396;48.742;9.128;2023-06-14T09:46:32;11.13;;;4.70;;
2480;SDS011;57396;48.742;9.128;2023-06-14T09:48:58;4.77;;;4.27;;
2480;SDS011;57396;48.742;9.128;2023-06-14T09:51:24;5.87;;;4.73;;
2480;SDS011;57396;48.742;9.128;2023-06-14T09:53:51;9.57;;;4.30;;
2480;SDS011;57396;48.742;9.128;2023-06-14T09:56:27;13.47;;;4.30;;
2480;SDS011;57396;48.742;9.128;2023-06-14T09:58:55;5.23;;;4.70;;
2480;SDS011;57396;48.742;9.128;2023-06-14T10:01:21;9.40;;;4.37;;
2480;SDS011;57396;48.742;9.128;2023-06-14T10:03:49;9.00;;;4.37;;
2480;SDS011;57396;48.742;9.128;2023-06-14T10:06:16;12.73;;;4.83;;
2480;SDS011;57396;48.742;9.128;2023-06-14T10:08:41;8.03;;;4.57;;
2480;SDS011;57396;48.742;9.128;2023-06-14T10:11:07;12.90;;;4.13;;
2480;SDS011;57396;48.742;9.128;2023-06-14T10:13:33;4.23;;;3.83;;
2480;SDS011;57396;48.742;9.128;2023-06-14T10:23:46;9.23;;;4.40;;
2480;SDS011;57396;48.742;9.128;2023-06-14T10:26:19;7.87;;;4.20;;
2480;SDS011;57396;48.742;9.128;2023-06-14T10:31:30;4.63;;;4.10;;
2480;SDS011;57396;48.742;9.128;2023-06-14T10:34:05;3.80;;;3.50;;
2480;SDS011;57396;48.742;9.128;2023-06-14T10:36:31;4.43;;;3.70;;
2480;SDS011;57396;48.742;9.128;2023-06-14T10:39:15;8.97;;;4.20;;
2480;SDS011;57396;48.742;9.128;2023-06-14T10:41:49;7.53;;;4.40;;
2480;SDS011;57396;48.742;9.128;2023-06-14T10:46:54;4.33;;;3.93;;
2480;SDS011;57396;48.742;9.128;2023-06-14T10:49:23;5.20;;;3.83;;
2480;SDS011;57396;48.742;9.128;2023-06-14T10:52:14;6.53;;;4.10;;
2480;SDS011;57396;48.742;9.128;2023-06-14T10:54:55;6.00;;;4.27;;
2480;SDS011;57396;48.742;9.128;2023-06-14T10:57:24;6.10;;;4.30;;
2480;SDS011;57396;48.742;9.128;2023-06-14T10:59:50;5.57;;;4.50;;
2480;SDS011;57396;48.742;9.128;2023-06-14T11:05:14;5.37;;;4.30;;
2480;SDS011;57396;48.742;9.128;2023-06-14T11:07:58;4.70;;;4.30;;
2480;SDS011;57396;48.742;9.128;2023-06-14T11:13:06;6.10;;;4.80;;
2480;SDS011;57396;48.742;9.128;2023-06-14T11:15:33;5.97;;;4.93;;
2480;SDS011;57396;48.742;9.128;2023-06-14T11:18:03;4.50;;;4.10;;
2480;SDS011;57396;48.742;9.128;2023-06-14T11:20:31;5.13;;;4.10;;
2480;SDS011;57396;48.742;9.128;2023-06-14T11:22:57;5.80;;;3.70;;
2480;SDS011;57396;48.742;9.128;2023-06-14T11:25:23;10.90;;;4.50;;
2480;SDS011;57396;48.742;9.128;2023-06-14T11:27:51;9.77;;;4.37;;
2480;SDS011;57396;48.742;9.128;2023-06-14T11:30:17;9.17;;;4.10;;
2480;SDS011;57396;48.742;9.128;2023-06-14T11:32:45;9.30;;;4.90;;
2480;SDS011;57396;48.742;9.128;2023-06-14T11:35:15;7.00;;;4.07;;
2480;SDS011;57396;48.742;9.128;2023-06-14T11:37:41;9.80;;;4.07;;
2480;SDS011;57396;48.742;9.128;2023-06-14T11:40:10;6.83;;;3.90;;
2480;SDS011;57396;48.742;9.128;2023-06-14T11:42:37;5.80;;;4.00;;
2480;SDS011;57396;48.742;9.128;2023-06-14T11:45:03;4.77;;;4.27;;
2480;SDS011;57396;48.742;9.128;2023-06-14T11:47:33;14.93;;;4.10;;
2480;SDS011;57396;48.742;9.128;2023-06-14T11:50:00;5.23;;;3.80;;
2480;SDS011;57396;48.742;9.128;2023-06-14T11:52:26;10.00;;;3.23;;
2480;SDS011;57396;48.742;9.128;2023-06-14T11:54:52;12.30;;;4.10;;
2480;SDS011;57396;48.742;9.128;2023-06-14T11:57:18;3.90;;;3.50;;
2480;SDS011;57396;48.742;9.128;2023-06-14T11:59:44;5.60;;;3.63;;
2480;SDS011;57396;48.742;9.128;2023-06-14T12:02:14;4.80;;;3.57;;
2480;SDS011;57396;48.742;9.128;2023-06-14T12:04:43;7.10;;;3.30;;
2480;SDS011;57396;48.742;9.128;2023-06-14T12:07:09;4.93;;;3.70;;
2480;SDS011;57396;48.742;9.128;2023-06-14T12:12:24;4.40;;;3.70;;
2480;SDS011;57396;48.742;9.128;2023-06-14T12:14:50;5.00;;;3.47;;
2480;SDS011;57396;48.742;9.128;2023-06-14T12:17:16;10.43;;;3.60;;
2480;SDS011;57396;48.742;9.128;2023-06-14T12:19:43;5.27;;;3.50;;
2480;SDS011;57396;48.742;9.128;2023-06-14T12:22:09;7.63;;;3.90;;
2480;SDS011;57396;48.742;9.128;2023-06-14T12:24:35;11.33;;;3.93;;
2480;SDS011;57396;48.742;9.128;2023-06-14T12:27:01;7.33;;;3.73;;
2480;SDS011;57396;48.742;9.128;2023-06-14T12:29:29;8.20;;;4.10;;
2480;SDS011;57396;48.742;9.128;2023-06-14T12:31:55;4.23;;;3.33;;
2480;SDS011;57396;48.742;9.128;2023-06-14T12:34:25;4.67;;;4.10;;
2480;SDS011;57396;48.742;9.128;2023-06-14T12:36:52;11.33;;;5.43;;
2480;SDS011;57396;48.742;9.128;2023-06-14T12:39:20;6.23;;;3.77;;
2480;SDS011;57396;48.742;9.128;2023-06-14T12:41:46;4.03;;;3.47;;
2480;SDS011;57396;48.742;9.128;2023-06-14T12:44:12;5.33;;;3.63;;
2480;SDS011;57396;48.742;9.128;2023-06-14T12:46:38;4.33;;;3.60;;
2480;SDS011;57396;48.742;9.128;2023-06-14T12:49:04;5.40;;;3.40;;
2480;SDS011;57396;48.742;9.128;2023-06-14T12:51:31;5.80;;;3.77;;
2480;SDS011;57396;48.742;9.128;2023-06-14T12:53:57;12.70;;;4.10;;
2480;SDS011;57396;48.742;9.128;2023-06-14T12:56:22;6.00;;;3.87;;
2480;SDS011;57396;48.742;9.128;2023-06-14T12:58:48;8.63;;;3.97;;
2480;SDS011;57396;48.742;9.128;2023-06-14T13:01:13;4.30;;;3.67;;
2480;SDS011;57396;48.742;9.128;2023-06-14T13:03:39;6.00;;;3.63;;
2480;SDS011;57396;48.742;9.128;2023-06-14T13:06:04;4.40;;;3.77;;
2480;SDS011;57396;48.742;9.128;2023-06-14T13:08:30;6.20;;;3.77;;
2480;SDS011;57396;48.742;9.128;2023-06-14T13:10:56;5.50;;;3.70;;
2480;SDS011;57396;48.742;9.128;2023-06-14T13:13:21;4.47;;;4.07;;
2480;SDS011;57396;48.742;9.128;2023-06-14T13:15:47;5.20;;;3.70;;
2480;SDS011;57396;48.742;9.128;2023-06-14T13:18:14;5.73;;;3.90;;
2480;SDS011;57396;48.742;9.128;2023-06-14T13:20:40;8.00;;;3.67;;
2480;SDS011;57396;48.742;9.128;2023-06-14T13:23:05;5.40;;;3.70;;
2480;SDS011;57396;48.742;9.128;2023-06-14T13:25:36;6.03;;;3.67;;
2480;SDS011;57396;48.742;9.128;2023-06-14T13:28:02;5.30;;;3.90;;
2480;SDS011;57396;48.742;9.128;2023-06-14T13:30:28;3.87;;;3.57;;
2480;SDS011;57396;48.742;9.128;2023-06-14T13:32:53;7.13;;;3.40;;
2480;SDS011;57396;48.742;9.128;2023-06-14T13:35:21;5.13;;;3.40;;
2480;SDS011;57396;48.742;9.128;2023-06-14T13:37:46;6.93;;;3.90;;
2480;SDS011;57396;48.742;9.128;2023-06-14T13:40:12;9.70;;;3.77;;
2480;SDS011;57396;48.742;9.128;2023-06-14T13:42:37;3.97;;;3.57;;
2480;SDS011;57396;48.742;9.128;2023-06-14T13:45:03;3.97;;;3.60;;
2480;SDS011;57396;48.742;9.128;2023-06-14T13:47:29;7.37;;;3.97;;
2480;SDS011;57396;48.742;9.128;2023-06-14T13:49:55;3.97;;;3.57;;
2480;SDS011;57396;48.742;9.128;2023-06-14T13:52:21;5.83;;;3.47;;
2480;SDS011;57396;48.742;9.128;2023-06-14T13:54:46;3.47;;;3.27;;
2480;SDS011;57396;48.742;9.128;2023-06-14T13:57:12;13.63;;;3.50;;
2480;SDS011;57396;48.742;9.128;2023-06-14T13:59:38;6.30;;;3.40;;
2480;SDS011;57396;48.742;9.128;2023-06-14T14:02:04;9.70;;;3.30;;
2480;SDS011;57396;48.742;9.128;2023-06-14T14:04:30;4.83;;;3.73;;
2480;SDS011;57396;48.742;9.128;2023-06-14T14:06:56;5.03;;;3.40;;
2480;SDS011;57396;48.742;9.128;2023-06-14T14:09:22;6.50;;;3.37;;
2480;SDS011;57396;48.742;9.128;2023-06-14T14:11:47;7.30;;;3.53;;
2480;SDS011;57396;48.742;9.128;2023-06-14T14:14:14;10.13;;;3.70;;
2480;SDS011;57396;48.742;9.128;2023-06-14T14:16:39;6.83;;;3.60;;
2480;SDS011;57396;48.742;9.128;2023-06-14T14:19:05;4.27;;;3.70;;
2480;SDS011;57396;48.742;9.128;2023-06-14T14:21:31;4.17;;;3.63;;
2480;SDS011;57396;48.742;9.128;2023-06-14T14:23:57;4.37;;;3.23;;
2480;SDS011;57396;48.742;9.128;2023-06-14T14:26:23;4.67;;;3.50;;
2480;SDS011;57396;48.742;9.128;2023-06-14T14:28:49;6.83;;;3.53;;
2480;SDS011;57396;48.742;9.128;2023-06-14T14:31:15;6.47;;;3.50;;
2480;SDS011;57396;48.742;9.128;2023-06-14T14:33:40;8.67;;;3.63;;
2480;SDS011;57396;48.742;9.128;2023-06-14T14:36:06;5.40;;;4.20;;
2480;SDS011;57396;48.742;9.128;2023-06-14T14:38:32;5.03;;;3.47;;
2480;SDS011;57396;48.742;9.128;2023-06-14T14:40:57;4.37;;;3.63;;
2480;SDS011;57396;48.742;9.128;2023-06-14T14:43:23;4.60;;;3.50;;
2480;SDS011;57396;48.742;9.128;2023-06-14T14:45:48;4.47;;;3.50;;
2480;SDS011;57396;48.742;9.128;2023-06-14T14:48:14;5.70;;;3.40;;
2480;SDS011;57396;48.742;9.128;2023-06-14T14:50:39;6.03;;;3.27;;
2480;SDS011;57396;48.742;9.128;2023-06-14T14:53:05;7.70;;;3.77;;
2480;SDS011;57396;48.742;9.128;2023-06-14T14:55:31;4.27;;;3.80;;
2480;SDS011;57396;48.742;9.128;2023-06-14T14:57:59;6.10;;;3.93;;
2480;SDS011;57396;48.742;9.128;2023-06-14T15:00:25;4.70;;;3.70;;
2480;SDS011;57396;48.742;9.128;2023-06-14T15:02:51;6.00;;;4.80;;
2480;SDS011;57396;48.742;9.128;2023-06-14T15:05:16;6.73;;;3.53;;
2480;SDS011;57396;48.742;9.128;2023-06-14T15:07:42;5.00;;;3.87;;
2480;SDS011;57396;48.742;9.128;2023-06-14T15:10:07;5.03;;;3.87;;
2480;SDS011;57396;48.742;9.128;2023-06-14T15:12:34;4.93;;;3.23;;
2480;SDS011;57396;48.742;9.128;2023-06-14T15:15:00;6.03;;;3.30;;
2480;SDS011;57396;48.742;9.128;2023-06-14T15:17:25;3.93;;;3.03;;
2480;SDS011;57396;48.742;9.128;2023-06-14T15:19:51;6.27;;;3.57;;
2480;SDS011;57396;48.742;9.128;2023-06-14T15:22:17;4.73;;;3.80;;
2480;SDS011;57396;48.742;9.128;2023-06-14T15:24:43;10.20;;;4.00;;